Sie sind vermutlich noch nicht im Forum angemeldet - Klicken Sie hier um sich kostenlos anzumelden  

Synchrondatenbank (von Arne Kaul) | Deutsche Synchronkartei | Seriensynchron - SeSyDaB | dubDB | Die vergessenen Filme || Datenschutz
Sie können sich hier anmelden
Dieses Forum hat 2.045 Themen
und zur Zeit 21.257 Beiträge
Sie haben keine Schreibrechte
 Spielfilmklassiker  »Neues Thema erstellen«
Forum Information
   Betreff Absender Antworten Zugriffe Letzter Beitrag
Plan 9 from outer Space (1959) Deak Ferance 8 570 28.06.2010 01:06
Der Todeskandidat (GB 1962) Willoughby 0 250 22.06.2010 18:38
Die Triebhaften (1964; DF: 1965) Frank Brenner 1 223 20.06.2010 11:36
Dietrich-Box Bonny 0 187 16.06.2010 08:44
Zwischen Samstag und Montag (DF: 1966) Frank Brenner 3 238 15.06.2010 19:19
Das verlorene Wochenende (USA 1945) Christian Muermann 3 369 15.06.2010 09:24
Jacques-Yves Cousteau - Kinofilme und Serie auf DVD c.n.-tonfilm 1 306 13.06.2010 15:47
AUFSTAND DER TIERE (UK 1954/DF 1955) c.n.-tonfilm 8 836 01.06.2010 01:06
HINWEIS: IN MEMORIAM: Erinnerung an ... E.v.G. 0 216 28.05.2010 18:20
Die Reise zum Mittelpunkt der Erde (1959) CeBe 7 699 16.05.2010 07:14
Beach Party (1963/DF 2003) Stephen 14 849 13.05.2010 01:56
Das Ungeheuer von Loch Ness (1958/DF 1961) Stephen 2 437 11.05.2010 18:10
Marokko (USA 1930) Lammers 5 611 11.05.2010 07:56
Deutsche Synchronisation der Disney-Filme (1, 2, 3, 4) Dirk 53 19.594 01.05.2010 19:11
Goldene Erde Kalifornien (USA 1938) Willoughby 0 214 29.04.2010 13:41
Die "Kaviar"-Filme (1961) HorstFrank 1 803 27.04.2010 18:13
Der Fluch des schwarzen Rubin (1965) HorstFrank 2 497 19.04.2010 19:09
Catherine - Abenteuer und Leidenschaft im sinnesfrohen Paris (1968/1969) HorstFrank 3 417 17.04.2010 11:08
Das Bildnis des Dorian Gray (1969/DF 1970) Stephen 4 635 17.04.2010 11:06
Der Hutmacher und sein Schloß (1942) Willoughby 0 238 05.04.2010 20:45
Katastrophenfilme der 70er Thorsten 8 2.596 02.04.2010 13:36
Wolken sind überall (1953/DF 1960) Stephen 8 1.824 21.03.2010 17:25
Verstümmelung von Filmen durch neue Musik Cesare 3 629 11.03.2010 01:22
Schneller als 1000 Colts (Thompson 1880) kogenta 5 611 11.03.2010 00:08
AUF MESSER'S SCHNEIDE (USA 1946/DF 1952/Neue Szenen DVD 2005) c.n.-tonfilm 6 1.017 03.03.2010 11:35
Disney Synchron Archiv online c.n.-tonfilm 14 2.060 01.03.2010 18:22
Die Satansengel von Nevada (1968/DF 1968) Stephen 2 482 01.03.2010 18:10
Unser Mann in Havanna (1959) Jayden 6 493 28.02.2010 17:01
Modell wider Willen (1944) Willoughby 0 162 25.02.2010 21:29
Die 13 Sklavinnen des Dr. Fu Man Chu (1966) Frank Brenner 6 981 25.02.2010 17:20
Die Klette (1969/DF 1970) Stephen 3 449 23.02.2010 18:29
Lemmy Caution gegen Alpha 60 (1965/DF 1965 & 2010) Stephen 4 667 23.02.2010 17:37
"Als das Licht ausging" - 1968 Fan von Edgar Wallace 6 551 23.02.2010 11:25
In Beirut sind die Nächte lang (1965) HorstFrank 7 680 20.02.2010 23:37
Der Würger vom Tower (1966) HorstFrank 0 1.184 20.02.2010 21:40
Was kommen wird/Things to come (UK 1936; DF 1977?) Markus 1 260 08.02.2010 23:01
Django - die Totengräber warten schon (1968) HorstFrank 8 739 08.02.2010 18:46
Schieß zurück, Cowboy Hightower 0 248 04.02.2010 09:35
Edgar Wallace: DAS GESICHT IM DUNKELN HorstFrank 11 746 20.01.2010 00:01
Der Marshall (USA, 1969) Isch 6 475 19.01.2010 15:28
 Sprung Seite « zurück  1 - 37  38  39  40  41  42  43  44 - 52  weiter »

Farb-Legende: blau = Spekulation, orange = Trailer-Besetzung, grün = endgültige Besetzung, rot = Korrektur/Ergänzung zur endgültigen Besetzung

Wir lie... also, wir finden Synchron ganz in Ordnung.
Erreichbar unter
215072.homepagemodules.de -- forum.serien-synchron.de

Weitere Smileys auf www.smilie-harvester.de
Xobor Forum Software von Xobor | Forum, Fotos, Chat und mehr mit Xobor